Springdale, Washington
Current Conditions -  °F | °C
As of 1:53 AM on Friday 31 Oct 2014 (Local Time) from KDEW Reporting Station
Clear Clear  
Wind Chill: 50°   Ceiling: Unl
Heat Index: 50°   Visibility: 10mi
Dew Point: 43°   Wind: 8mph
Humidity: 77%   Direction: 20°NNE
Pressure: 29.77"   Gusts: NA
Location:  48.06°N, 117.74°W
Report Text: KDEW 310853Z AUTO 02007KT 10SM CLR 10/06 A2977 RMK AO2 SLP082 T01000061 56017
Loading
Personal Weather Stations






























Interactive Weather Map
Tropical Storm Tracking
New forecast layout! Learn more

10-Day Weather Forecast

Advertisements
Track Severe Weather on mobile